createdAt,value
2023-03-12T00:01:30.644Z,12.00
2023-03-12T00:03:57.189Z,11.60
2023-03-12T00:06:24.321Z,10.73
2023-03-12T00:08:50.701Z,11.63
2023-03-12T00:11:19.413Z,11.80
2023-03-12T00:13:49.904Z,11.60
2023-03-12T00:16:16.365Z,11.17
2023-03-12T00:18:44.183Z,12.33
2023-03-12T00:21:10.998Z,11.67
2023-03-12T00:23:37.427Z,12.40
2023-03-12T00:26:06.959Z,12.83
2023-03-12T00:28:34.865Z,12.30
2023-03-12T00:31:02.104Z,11.40
2023-03-12T00:33:29.178Z,10.87
2023-03-12T00:35:56.655Z,10.73
2023-03-12T00:38:23.102Z,9.83
2023-03-12T00:40:49.458Z,8.93
2023-03-12T00:43:15.853Z,10.27
2023-03-12T00:45:42.199Z,10.00
2023-03-12T00:48:09.013Z,10.27
2023-03-12T00:50:35.526Z,11.57
2023-03-12T00:53:01.880Z,11.20
2023-03-12T00:55:28.230Z,11.33
2023-03-12T00:57:54.613Z,11.17
2023-03-12T01:00:21.391Z,11.37
2023-03-12T01:02:47.986Z,9.90
2023-03-12T01:05:14.828Z,9.57
2023-03-12T01:07:41.288Z,9.10
2023-03-12T01:10:08.974Z,9.63
2023-03-12T01:12:35.480Z,9.47
2023-03-12T01:15:01.902Z,9.27
2023-03-12T01:17:28.253Z,9.33
2023-03-12T01:19:54.569Z,9.23
2023-03-12T01:22:20.935Z,10.20
2023-03-12T01:24:47.313Z,9.77
2023-03-12T01:27:13.664Z,10.83
2023-03-12T01:29:40.059Z,10.17
2023-03-12T01:32:06.759Z,9.93
2023-03-12T01:34:35.319Z,9.90
2023-03-12T01:37:02.304Z,11.30
2023-03-12T01:39:28.742Z,11.73
2023-03-12T01:41:55.432Z,12.10
2023-03-12T01:44:24.490Z,13.47
2023-03-12T01:46:50.815Z,13.43
2023-03-12T01:49:25.629Z,12.77
2023-03-12T01:51:57.016Z,13.37
2023-03-12T01:54:38.523Z,13.80
2023-03-12T01:57:08.372Z,13.50
2023-03-12T01:59:42.151Z,13.80
2023-03-12T02:02:09.220Z,14.67
2023-03-12T02:04:38.629Z,14.30
2023-03-12T02:07:07.167Z,12.33
2023-03-12T02:09:36.174Z,11.87
2023-03-12T02:12:03.100Z,11.27
2023-03-12T02:14:29.621Z,11.70
2023-03-12T02:16:56.238Z,12.93
2023-03-12T02:19:45.864Z,11.83
2023-03-12T02:22:14.001Z,13.27
2023-03-12T02:25:03.836Z,12.67
2023-03-12T02:27:33.493Z,13.03
2023-03-12T02:30:01.458Z,12.27
2023-03-12T02:32:34.061Z,10.37
2023-03-12T02:35:01.504Z,11.60
2023-03-12T02:37:27.928Z,10.67
2023-03-12T02:40:07.408Z,11.40
2023-03-12T02:42:34.113Z,11.00
2023-03-12T02:45:01.891Z,10.93
2023-03-12T02:47:28.246Z,11.60
2023-03-12T02:49:54.656Z,10.87
2023-03-12T02:52:21.001Z,9.97
2023-03-12T02:54:47.326Z,9.80
2023-03-12T02:57:13.784Z,9.37
2023-03-12T02:59:40.149Z,9.17
2023-03-12T03:02:06.862Z,8.97
2023-03-12T03:04:34.860Z,9.10
2023-03-12T03:07:01.638Z,10.53
2023-03-12T03:09:28.000Z,9.83
2023-03-12T03:11:54.329Z,9.07
2023-03-12T03:14:20.763Z,10.60
2023-03-12T03:16:47.091Z,9.67
2023-03-12T03:19:13.712Z,10.07
2023-03-12T03:21:40.203Z,10.50
2023-03-12T03:24:06.733Z,11.30
2023-03-12T03:26:33.249Z,9.50
2023-03-12T03:28:59.629Z,10.93
2023-03-12T03:31:26.146Z,10.57
2023-03-12T03:33:52.543Z,11.87
2023-03-12T03:36:19.194Z,10.80
2023-03-12T03:38:49.165Z,10.90
2023-03-12T03:41:20.448Z,11.20
2023-03-12T03:43:47.279Z,10.10
2023-03-12T03:46:14.731Z,9.83
2023-03-12T03:48:41.782Z,9.70
2023-03-12T03:51:09.674Z,10.60
2023-03-12T03:53:36.186Z,9.40
2023-03-12T03:56:10.891Z,8.97
2023-03-12T03:58:37.401Z,9.00
2023-03-12T04:01:04.205Z,9.30
2023-03-12T04:03:30.665Z,10.80
2023-03-12T04:05:59.973Z,9.43
2023-03-12T04:08:26.940Z,10.33
2023-03-12T04:10:53.445Z,9.60
2023-03-12T04:13:19.904Z,9.47
2023-03-12T04:15:53.687Z,9.00
2023-03-12T04:18:20.639Z,9.23
2023-03-12T04:20:47.005Z,10.03
2023-03-12T04:23:13.352Z,10.07
2023-03-12T04:25:39.903Z,9.50
2023-03-12T04:28:06.846Z,8.67
2023-03-12T04:30:33.325Z,9.90
2023-03-12T04:32:59.695Z,9.30
2023-03-12T04:35:26.033Z,8.70
2023-03-12T04:37:52.436Z,8.97
2023-03-12T04:40:19.881Z,9.13
2023-03-12T04:42:46.511Z,7.70
2023-03-12T04:45:12.887Z,8.30
2023-03-12T04:47:39.248Z,7.40
2023-03-12T04:50:06.181Z,7.40
2023-03-12T04:52:32.547Z,6.60
2023-03-12T04:55:00.342Z,6.63
2023-03-12T04:57:26.823Z,5.93
2023-03-12T04:59:53.183Z,6.07
2023-03-12T05:02:19.751Z,6.13
2023-03-12T05:04:46.170Z,7.20
2023-03-12T05:07:12.591Z,7.00
2023-03-12T05:09:38.944Z,6.50
2023-03-12T05:12:05.674Z,8.20
2023-03-12T05:14:32.038Z,7.30
2023-03-12T05:16:58.425Z,6.90
2023-03-12T05:19:24.762Z,7.20
2023-03-12T05:21:51.184Z,8.00
2023-03-12T05:24:18.878Z,8.67
2023-03-12T05:26:45.217Z,8.40
2023-03-12T05:29:11.575Z,7.77
2023-03-12T05:31:38.029Z,7.20
2023-03-12T05:34:05.180Z,8.00
2023-03-12T05:36:31.565Z,7.57
2023-03-12T05:38:57.952Z,7.57
2023-03-12T05:41:29.218Z,8.20
2023-03-12T05:43:57.134Z,8.03
2023-03-12T05:46:25.123Z,7.87
2023-03-12T05:48:51.567Z,7.97
2023-03-12T05:51:18.460Z,8.10
2023-03-12T05:53:45.198Z,8.90
2023-03-12T05:56:14.869Z,8.43
2023-03-12T05:58:41.651Z,8.50
2023-03-12T06:01:16.765Z,8.67
2023-03-12T06:03:43.333Z,7.80
2023-03-12T06:06:10.569Z,8.37
2023-03-12T06:08:37.107Z,7.70
2023-03-12T06:11:03.610Z,7.93
2023-03-12T06:13:30.257Z,8.50
2023-03-12T06:16:05.574Z,8.63
2023-03-12T06:18:33.994Z,8.80
2023-03-12T06:21:21.921Z,8.50
2023-03-12T06:23:49.137Z,9.27
2023-03-12T06:26:16.649Z,9.27
2023-03-12T06:28:43.220Z,10.80
2023-03-12T06:31:09.715Z,9.47
2023-03-12T06:33:36.188Z,9.63
2023-03-12T06:36:05.227Z,9.97
2023-03-12T06:38:31.944Z,10.27
2023-03-12T06:41:04.137Z,9.60
2023-03-12T06:43:32.422Z,9.83
2023-03-12T06:45:59.887Z,10.17
2023-03-12T06:48:27.954Z,9.73
2023-03-12T06:50:54.595Z,11.03
2023-03-12T06:53:21.755Z,11.00
2023-03-12T06:55:50.724Z,11.07
2023-03-12T06:58:17.793Z,11.00
2023-03-12T07:00:44.497Z,10.70
2023-03-12T07:03:10.825Z,10.67
2023-03-12T07:05:37.170Z,11.33
2023-03-12T07:08:03.713Z,12.50
2023-03-12T07:10:30.483Z,12.50
2023-03-12T07:12:56.944Z,13.40
2023-03-12T07:15:23.734Z,12.87
2023-03-12T07:17:50.459Z,13.67
2023-03-12T07:20:17.081Z,12.90
2023-03-12T07:22:43.394Z,12.63
2023-03-12T07:25:09.971Z,12.10
2023-03-12T07:27:36.377Z,10.90
2023-03-12T07:30:03.260Z,13.47
2023-03-12T07:32:29.648Z,12.93
2023-03-12T07:34:56.015Z,14.87
2023-03-12T07:37:22.466Z,13.57
2023-03-12T07:39:52.143Z,15.27
2023-03-12T07:42:18.558Z,16.27
2023-03-12T07:44:44.877Z,16.30
2023-03-12T07:47:23.122Z,16.43
2023-03-12T07:49:50.981Z,16.13
2023-03-12T07:52:20.660Z,16.97
2023-03-12T07:54:47.726Z,18.30
2023-03-12T07:57:14.591Z,17.97
2023-03-12T07:59:41.619Z,18.50
2023-03-12T08:02:10.680Z,20.30
2023-03-12T08:04:37.285Z,22.20
2023-03-12T08:07:03.821Z,21.10
2023-03-12T08:09:30.302Z,20.13
2023-03-12T08:11:56.656Z,20.27
2023-03-12T08:14:23.083Z,21.33
2023-03-12T08:16:50.004Z,20.47
2023-03-12T08:19:16.435Z,20.50
2023-03-12T08:21:42.791Z,19.53
2023-03-12T08:24:09.148Z,18.53
2023-03-12T08:26:35.469Z,18.93
2023-03-12T08:29:01.837Z,20.53
2023-03-12T08:31:29.248Z,20.30
2023-03-12T08:33:55.609Z,18.17
2023-03-12T08:36:22.552Z,18.00
2023-03-12T08:38:49.130Z,18.63
2023-03-12T08:41:15.529Z,17.67
2023-03-12T08:43:41.946Z,17.10
2023-03-12T08:46:09.826Z,15.87
2023-03-12T08:48:37.452Z,16.00
2023-03-12T08:51:05.709Z,16.87
2023-03-12T08:53:34.199Z,16.37
2023-03-12T08:56:01.496Z,15.53
2023-03-12T08:58:29.376Z,14.07
2023-03-12T09:00:56.580Z,15.60
2023-03-12T09:03:23.745Z,16.20
2023-03-12T09:05:51.271Z,16.00
2023-03-12T09:08:17.907Z,17.07
2023-03-12T09:10:49.937Z,16.30
2023-03-12T09:13:16.474Z,14.20
2023-03-12T09:15:42.821Z,13.80
2023-03-12T09:18:09.386Z,14.33
2023-03-12T09:20:35.907Z,14.23
2023-03-12T09:23:02.223Z,12.40
2023-03-12T09:25:28.549Z,13.70
2023-03-12T09:27:54.890Z,12.73
2023-03-12T09:30:22.194Z,13.30
2023-03-12T09:32:48.954Z,15.27
2023-03-12T09:35:16.227Z,12.40
2023-03-12T09:37:42.705Z,14.47
2023-03-12T09:40:16.283Z,14.03
2023-03-12T09:43:18.738Z,15.00
2023-03-12T09:45:47.485Z,15.13
2023-03-12T09:48:33.153Z,14.90
2023-03-12T09:51:06.021Z,13.73
2023-03-12T09:53:48.540Z,13.70
2023-03-12T09:56:17.829Z,13.10
2023-03-12T09:58:48.418Z,12.50
2023-03-12T10:01:32.960Z,12.97
2023-03-12T10:04:17.977Z,12.07
2023-03-12T10:07:11.953Z,12.67
2023-03-12T10:09:45.855Z,13.30
2023-03-12T10:12:34.466Z,13.13
2023-03-12T10:15:14.420Z,13.97
2023-03-12T10:18:18.866Z,14.60
2023-03-12T10:21:07.602Z,15.47
2023-03-12T10:23:46.272Z,17.40
2023-03-12T10:26:47.366Z,14.60
2023-03-12T10:29:21.530Z,13.80
2023-03-12T10:32:02.386Z,14.13
2023-03-12T10:34:42.425Z,14.93
2023-03-12T10:37:25.687Z,13.67
2023-03-12T10:39:54.044Z,13.30
2023-03-12T10:42:23.028Z,13.00
2023-03-12T10:44:53.945Z,12.30
2023-03-12T10:47:34.699Z,13.07
2023-03-12T10:50:21.943Z,13.10
2023-03-12T10:52:50.977Z,10.93
2023-03-12T10:55:30.652Z,10.37
2023-03-12T10:57:57.228Z,10.77
2023-03-12T11:00:27.007Z,10.80
2023-03-12T11:03:03.612Z,9.80
2023-03-12T11:05:35.676Z,7.50
2023-03-12T11:08:04.169Z,9.40
2023-03-12T11:10:46.004Z,8.83
2023-03-12T11:13:33.675Z,7.13
2023-03-12T11:16:30.057Z,7.53
2023-03-12T11:19:03.869Z,7.37
2023-03-12T11:21:33.069Z,7.60
2023-03-12T11:24:04.617Z,6.00
2023-03-12T11:26:45.761Z,6.80
2023-03-12T11:29:39.967Z,4.77
2023-03-12T11:32:06.494Z,4.20
2023-03-12T11:34:35.328Z,3.83
2023-03-12T11:37:10.999Z,3.10
2023-03-12T11:39:49.307Z,3.10
2023-03-12T11:42:35.882Z,2.67
2023-03-12T11:45:24.090Z,2.77
2023-03-12T11:48:38.303Z,3.17
2023-03-12T11:51:35.943Z,2.90
2023-03-12T11:54:12.056Z,2.10
2023-03-12T11:56:48.827Z,2.90
2023-03-12T11:59:33.836Z,2.20
2023-03-12T12:02:34.408Z,3.30
2023-03-12T12:05:08.786Z,2.70
2023-03-12T12:07:41.501Z,2.00
2023-03-12T12:10:22.612Z,1.93
2023-03-12T12:13:06.353Z,1.83
2023-03-12T12:15:51.847Z,1.83
2023-03-12T12:18:55.787Z,1.63
2023-03-12T12:21:54.232Z,2.10
2023-03-12T12:24:39.924Z,1.97
2023-03-12T12:27:24.350Z,1.70
2023-03-12T12:30:04.495Z,1.80
2023-03-12T12:32:33.877Z,2.10
2023-03-12T12:35:38.493Z,2.17
2023-03-12T12:38:16.369Z,1.70
2023-03-12T12:40:49.119Z,2.00
2023-03-12T12:43:25.419Z,1.90
2023-03-12T12:45:54.901Z,2.10
2023-03-12T12:48:26.676Z,1.90
2023-03-12T12:50:54.362Z,2.60
2023-03-12T12:53:54.136Z,2.40
2023-03-12T12:56:28.349Z,2.27
2023-03-12T12:59:03.475Z,2.70
2023-03-12T13:01:32.021Z,1.97
2023-03-12T13:04:06.986Z,2.30
2023-03-12T13:07:16.855Z,2.23
2023-03-12T13:09:50.689Z,1.60
2023-03-12T13:12:41.926Z,2.43
2023-03-12T13:15:44.811Z,2.40
2023-03-12T13:18:24.313Z,1.80
2023-03-12T13:20:53.343Z,2.00
2023-03-12T13:23:53.990Z,2.40
2023-03-12T13:26:27.161Z,1.50
2023-03-12T13:28:56.978Z,2.27
2023-03-12T13:31:29.095Z,2.03
2023-03-12T13:34:19.859Z,1.80
2023-03-12T13:36:50.316Z,1.83
2023-03-12T13:39:16.590Z,1.90
2023-03-12T13:41:45.613Z,2.20
2023-03-12T13:44:39.062Z,2.23
2023-03-12T13:47:11.386Z,1.90
2023-03-12T13:49:46.259Z,1.80
2023-03-12T13:52:25.853Z,2.37
2023-03-12T13:55:07.780Z,1.40
2023-03-12T13:57:44.385Z,1.70
2023-03-12T14:00:29.107Z,1.43
2023-03-12T14:03:03.643Z,1.70
2023-03-12T14:06:04.881Z,1.87
2023-03-12T14:08:50.060Z,1.30
2023-03-12T14:11:34.979Z,1.43
2023-03-12T14:14:20.534Z,1.47
2023-03-12T14:16:49.791Z,1.33
2023-03-12T14:19:19.556Z,1.87
2023-03-12T14:21:48.857Z,2.03
2023-03-12T14:24:24.402Z,1.50
2023-03-12T14:26:51.757Z,2.20
2023-03-12T14:29:25.185Z,1.57
2023-03-12T14:31:54.558Z,1.50
2023-03-12T14:34:24.233Z,1.33
2023-03-12T14:37:00.345Z,1.77
2023-03-12T14:40:05.547Z,1.30
2023-03-12T14:42:36.116Z,1.97
2023-03-12T14:45:11.971Z,1.30
2023-03-12T14:47:47.058Z,1.90
2023-03-12T14:50:27.693Z,1.80
2023-03-12T14:52:54.987Z,1.53
2023-03-12T14:55:25.252Z,1.70
2023-03-12T14:58:04.656Z,2.20
2023-03-12T15:00:31.750Z,2.07
2023-03-12T15:03:02.833Z,1.80
2023-03-12T15:05:29.281Z,2.17
2023-03-12T15:08:01.862Z,1.80
2023-03-12T15:10:30.759Z,2.93
2023-03-12T15:12:59.802Z,2.27
2023-03-12T15:15:36.122Z,2.37
2023-03-12T15:18:16.021Z,1.80
2023-03-12T15:20:42.992Z,1.97
2023-03-12T15:23:13.077Z,1.50
2023-03-12T15:25:39.577Z,1.97
2023-03-12T15:28:14.977Z,2.03
2023-03-12T15:30:43.044Z,1.80
2023-03-12T15:33:15.236Z,1.60
2023-03-12T15:36:28.396Z,1.73
2023-03-12T15:39:05.722Z,1.60
2023-03-12T15:41:40.210Z,1.53
2023-03-12T15:44:06.743Z,1.50
2023-03-12T15:46:33.310Z,1.83
2023-03-12T15:49:00.896Z,1.97
2023-03-12T15:51:39.530Z,1.77
2023-03-12T15:54:24.316Z,1.53
2023-03-12T15:56:50.852Z,1.47
2023-03-12T15:59:17.148Z,2.10
2023-03-12T16:01:46.096Z,1.17
2023-03-12T16:04:12.849Z,1.50
2023-03-12T16:06:39.552Z,2.17
2023-03-12T16:09:06.031Z,2.40
2023-03-12T16:11:35.540Z,1.30
2023-03-12T16:14:05.542Z,1.43
2023-03-12T16:16:32.049Z,1.20
2023-03-12T16:18:58.481Z,1.23
2023-03-12T16:21:24.953Z,1.57
2023-03-12T16:23:51.326Z,1.40
2023-03-12T16:26:17.877Z,1.40
2023-03-12T16:28:44.639Z,1.47
2023-03-12T16:31:15.402Z,1.43
2023-03-12T16:33:42.263Z,1.90
2023-03-12T16:36:16.976Z,1.57
2023-03-12T16:38:44.502Z,1.73
2023-03-12T16:41:16.980Z,1.70
2023-03-12T16:43:51.179Z,1.40
2023-03-12T16:46:20.441Z,1.43
2023-03-12T16:48:51.296Z,1.53
2023-03-12T16:51:17.628Z,1.53
2023-03-12T16:53:44.182Z,1.57
2023-03-12T16:56:17.282Z,2.30
2023-03-12T16:58:44.205Z,2.67
2023-03-12T17:01:15.459Z,2.60
2023-03-12T17:03:45.398Z,2.00
2023-03-12T17:06:18.417Z,2.40
2023-03-12T17:08:45.905Z,1.70
2023-03-12T17:11:24.621Z,2.40
2023-03-12T17:13:57.641Z,1.73
2023-03-12T17:16:24.995Z,1.67
2023-03-12T17:18:51.557Z,1.73
2023-03-12T17:21:19.269Z,2.37
2023-03-12T17:23:47.748Z,1.80
2023-03-12T17:26:14.073Z,1.90
2023-03-12T17:28:40.431Z,1.83
2023-03-12T17:31:07.233Z,2.17
2023-03-12T17:33:33.710Z,2.30
2023-03-12T17:36:03.618Z,2.37
2023-03-12T17:38:30.475Z,1.83
2023-03-12T17:40:57.672Z,2.07
2023-03-12T17:43:24.176Z,2.00
2023-03-12T17:45:51.361Z,2.53
2023-03-12T17:48:18.060Z,2.33
2023-03-12T17:50:44.732Z,1.60
2023-03-12T17:53:11.971Z,1.80
2023-03-12T17:55:38.314Z,1.70
2023-03-12T17:58:06.200Z,1.33
2023-03-12T18:00:33.065Z,2.90
2023-03-12T18:02:59.495Z,2.30
2023-03-12T18:05:26.181Z,2.37
2023-03-12T18:07:52.518Z,2.23
2023-03-12T18:10:18.980Z,2.00
2023-03-12T18:12:45.321Z,1.90
2023-03-12T18:15:13.822Z,2.10
2023-03-12T18:17:41.412Z,1.90
2023-03-12T18:20:16.593Z,2.20
2023-03-12T18:22:46.133Z,2.70
2023-03-12T18:25:12.745Z,2.03
2023-03-12T18:27:39.166Z,2.90
2023-03-12T18:30:08.241Z,2.70
2023-03-12T18:32:35.049Z,2.97
2023-03-12T18:35:01.770Z,2.97
2023-03-12T18:37:28.089Z,2.50
2023-03-12T18:39:54.518Z,2.80
2023-03-12T18:42:20.879Z,5.43
2023-03-12T18:44:47.254Z,6.50
2023-03-12T18:47:13.629Z,4.03
2023-03-12T18:49:40.226Z,2.80
2023-03-12T18:52:06.582Z,2.50
2023-03-12T18:54:33.644Z,2.40
2023-03-12T18:57:00.450Z,2.43
2023-03-12T18:59:27.015Z,3.40
2023-03-12T19:01:53.426Z,2.50
2023-03-12T19:04:19.921Z,3.20
2023-03-12T19:06:51.252Z,2.80
2023-03-12T19:09:18.700Z,2.93
2023-03-12T19:11:47.531Z,2.67
2023-03-12T19:14:14.181Z,2.60
2023-03-12T19:16:40.644Z,2.80
2023-03-12T19:19:07.017Z,2.23
2023-03-12T19:21:33.417Z,3.27
2023-03-12T19:23:59.775Z,2.47
2023-03-12T19:26:26.144Z,2.37
2023-03-12T19:28:52.508Z,2.40
2023-03-12T19:31:19.046Z,2.50
2023-03-12T19:33:45.457Z,3.60
2023-03-12T19:36:11.867Z,2.40
2023-03-12T19:38:38.432Z,2.40
2023-03-12T19:41:08.450Z,2.67
2023-03-12T19:43:35.630Z,2.70
2023-03-12T19:46:02.099Z,3.13
2023-03-12T19:48:28.605Z,2.53
2023-03-12T19:50:55.865Z,2.30
2023-03-12T19:53:22.573Z,2.70
2023-03-12T19:55:49.559Z,3.13
2023-03-12T19:58:16.803Z,2.40
2023-03-12T20:00:43.546Z,2.43
2023-03-12T20:03:10.061Z,2.13
2023-03-12T20:05:36.435Z,2.40
2023-03-12T20:08:02.760Z,2.70
2023-03-12T20:10:29.298Z,2.40
2023-03-12T20:12:55.689Z,2.53
2023-03-12T20:15:21.998Z,2.70
2023-03-12T20:17:48.390Z,3.00
2023-03-12T20:20:16.478Z,2.50
2023-03-12T20:22:42.813Z,2.53
2023-03-12T20:25:10.312Z,2.30
2023-03-12T20:27:36.782Z,2.80
2023-03-12T20:30:03.678Z,2.03
2023-03-12T20:32:30.493Z,2.57
2023-03-12T20:34:56.905Z,2.30
2023-03-12T20:37:23.253Z,2.67
2023-03-12T20:39:49.722Z,2.53
2023-03-12T20:42:16.129Z,2.77
2023-03-12T20:44:42.461Z,2.40
2023-03-12T20:47:08.908Z,2.57
2023-03-12T20:49:35.347Z,2.20
2023-03-12T20:52:01.891Z,2.20
2023-03-12T20:54:28.262Z,2.20
2023-03-12T20:56:54.660Z,2.47
2023-03-12T20:59:21.047Z,1.80
2023-03-12T21:01:47.429Z,2.70
2023-03-12T21:04:14.385Z,2.90
2023-03-12T21:06:40.772Z,2.53
2023-03-12T21:09:07.300Z,2.10
2023-03-12T21:11:33.829Z,2.70
2023-03-12T21:14:00.153Z,2.83
2023-03-12T21:16:26.600Z,2.57
2023-03-12T21:18:57.199Z,2.43
2023-03-12T21:21:23.678Z,2.60
2023-03-12T21:23:50.120Z,2.80
2023-03-12T21:26:18.226Z,2.50
2023-03-12T21:28:45.166Z,3.20
2023-03-12T21:31:13.223Z,3.10
2023-03-12T21:33:40.063Z,3.10
2023-03-12T21:36:08.827Z,3.27
2023-03-12T21:38:36.378Z,2.33
2023-03-12T21:41:08.548Z,2.80
2023-03-12T21:43:34.987Z,2.67
2023-03-12T21:46:09.221Z,2.50
2023-03-12T21:48:36.206Z,2.57
2023-03-12T21:51:04.723Z,2.40
2023-03-12T21:53:31.398Z,2.60
2023-03-12T21:55:59.416Z,2.53
2023-03-12T21:58:26.206Z,2.57
2023-03-12T22:00:52.609Z,3.60
2023-03-12T22:03:18.996Z,3.37
2023-03-12T22:05:50.777Z,2.97
2023-03-12T22:08:17.144Z,2.13
2023-03-12T22:10:45.217Z,2.40
2023-03-12T22:13:11.928Z,2.30
2023-03-12T22:15:38.504Z,2.43
2023-03-12T22:18:04.891Z,2.70
2023-03-12T22:20:34.077Z,2.60
2023-03-12T22:23:00.870Z,2.50
2023-03-12T22:25:27.235Z,3.30
2023-03-12T22:27:53.581Z,2.53
2023-03-12T22:30:19.962Z,2.83
2023-03-12T22:32:46.363Z,2.97
2023-03-12T22:35:12.799Z,2.53
2023-03-12T22:37:39.172Z,3.10
2023-03-12T22:40:07.055Z,2.10
2023-03-12T22:42:33.893Z,2.77
2023-03-12T22:45:00.241Z,2.90
2023-03-12T22:47:26.641Z,2.63
2023-03-12T22:49:53.038Z,2.57
2023-03-12T22:52:19.416Z,2.43
2023-03-12T22:54:45.776Z,2.97
2023-03-12T22:57:12.141Z,2.00
2023-03-12T22:59:38.476Z,2.63
2023-03-12T23:02:04.901Z,2.83
2023-03-12T23:04:31.348Z,2.33
2023-03-12T23:07:12.970Z,2.10
2023-03-12T23:09:40.250Z,2.50
2023-03-12T23:12:06.949Z,2.33
2023-03-12T23:14:33.959Z,2.07
2023-03-12T23:17:00.292Z,1.93
2023-03-12T23:19:32.246Z,2.00
2023-03-12T23:21:58.574Z,2.43
2023-03-12T23:24:25.013Z,1.80
2023-03-12T23:26:51.366Z,2.30
2023-03-12T23:29:17.726Z,2.13
2023-03-12T23:31:44.114Z,1.93
2023-03-12T23:34:10.506Z,1.77
2023-03-12T23:36:36.875Z,1.60
2023-03-12T23:39:03.628Z,1.90
2023-03-12T23:41:30.002Z,1.63
2023-03-12T23:43:57.293Z,2.13
2023-03-12T23:46:24.166Z,2.40
2023-03-12T23:48:50.602Z,2.40
2023-03-12T23:51:20.082Z,2.73
2023-03-12T23:53:49.105Z,2.00
2023-03-12T23:56:22.028Z,2.00
2023-03-12T23:58:49.061Z,2.40
